sensor_id;sensor_type;location;lat;lon;timestamp;temperature;humidity
39103;DHT22;24847;48.218;16.414;2023-04-24T00:00:30;16.00;99.90
39103;DHT22;24847;48.218;16.414;2023-04-24T00:05:33;16.10;99.90
39103;DHT22;24847;48.218;16.414;2023-04-24T00:10:35;16.00;99.90
39103;DHT22;24847;48.218;16.414;2023-04-24T00:15:39;16.00;99.90
39103;DHT22;24847;48.218;16.414;2023-04-24T00:20:41;16.10;99.90
39103;DHT22;24847;48.218;16.414;2023-04-24T00:25:44;16.10;99.90
39103;DHT22;24847;48.218;16.414;2023-04-24T00:30:47;16.10;99.90
39103;DHT22;24847;48.218;16.414;2023-04-24T00:35:50;15.70;99.90
39103;DHT22;24847;48.218;16.414;2023-04-24T00:40:52;15.80;99.90
39103;DHT22;24847;48.218;16.414;2023-04-24T00:45:57;15.80;99.90
39103;DHT22;24847;48.218;16.414;2023-04-24T00:51:00;15.50;99.90
39103;DHT22;24847;48.218;16.414;2023-04-24T00:56:02;15.30;99.90
39103;DHT22;24847;48.218;16.414;2023-04-24T01:01:06;15.20;99.90
39103;DHT22;24847;48.218;16.414;2023-04-24T01:06:09;15.30;99.90
39103;DHT22;24847;48.218;16.414;2023-04-24T01:11:12;15.80;99.90
39103;DHT22;24847;48.218;16.414;2023-04-24T01:16:16;15.50;99.90
39103;DHT22;24847;48.218;16.414;2023-04-24T01:21:21;15.30;99.90
39103;DHT22;24847;48.218;16.414;2023-04-24T01:26:27;15.60;99.90
39103;DHT22;24847;48.218;16.414;2023-04-24T01:31:30;15.70;99.90
39103;DHT22;24847;48.218;16.414;2023-04-24T01:36:33;15.60;99.90
39103;DHT22;24847;48.218;16.414;2023-04-24T01:41:38;15.70;99.90
39103;DHT22;24847;48.218;16.414;2023-04-24T01:46:40;15.50;99.90
39103;DHT22;24847;48.218;16.414;2023-04-24T01:51:43;15.40;99.90
39103;DHT22;24847;48.218;16.414;2023-04-24T01:56:47;15.20;99.90
39103;DHT22;24847;48.218;16.414;2023-04-24T02:01:49;15.20;99.90
39103;DHT22;24847;48.218;16.414;2023-04-24T02:06:52;15.10;99.90
39103;DHT22;24847;48.218;16.414;2023-04-24T02:11:55;15.40;99.90
39103;DHT22;24847;48.218;16.414;2023-04-24T02:16:57;15.50;99.90
39103;DHT22;24847;48.218;16.414;2023-04-24T02:22:01;15.30;99.90
39103;DHT22;24847;48.218;16.414;2023-04-24T02:27:05;15.30;99.90
39103;DHT22;24847;48.218;16.414;2023-04-24T02:32:07;15.20;99.90
39103;DHT22;24847;48.218;16.414;2023-04-24T02:37:12;15.10;99.90
39103;DHT22;24847;48.218;16.414;2023-04-24T02:42:15;15.10;99.90
39103;DHT22;24847;48.218;16.414;2023-04-24T02:47:17;14.90;99.90
39103;DHT22;24847;48.218;16.414;2023-04-24T02:52:19;14.70;99.90
39103;DHT22;24847;48.218;16.414;2023-04-24T02:57:23;14.60;99.90
39103;DHT22;24847;48.218;16.414;2023-04-24T03:02:25;14.40;99.90
39103;DHT22;24847;48.218;16.414;2023-04-24T03:07:28;14.40;99.90
39103;DHT22;24847;48.218;16.414;2023-04-24T03:12:42;14.40;99.90
39103;DHT22;24847;48.218;16.414;2023-04-24T03:17:44;14.40;99.90
39103;DHT22;24847;48.218;16.414;2023-04-24T03:22:46;14.40;99.90
39103;DHT22;24847;48.218;16.414;2023-04-24T03:27:50;14.20;99.90
39103;DHT22;24847;48.218;16.414;2023-04-24T03:32:52;14.40;99.90
39103;DHT22;24847;48.218;16.414;2023-04-24T03:37:54;14.20;99.90
39103;DHT22;24847;48.218;16.414;2023-04-24T03:42:57;14.30;99.90
39103;DHT22;24847;48.218;16.414;2023-04-24T03:48:00;14.30;99.90
39103;DHT22;24847;48.218;16.414;2023-04-24T03:53:02;14.40;99.90
39103;DHT22;24847;48.218;16.414;2023-04-24T03:58:08;14.20;99.90
39103;DHT22;24847;48.218;16.414;2023-04-24T04:03:12;14.10;99.90
39103;DHT22;24847;48.218;16.414;2023-04-24T04:08:15;14.10;99.90
39103;DHT22;24847;48.218;16.414;2023-04-24T04:13:18;14.10;99.90
39103;DHT22;24847;48.218;16.414;2023-04-24T04:18:21;14.20;99.90
39103;DHT22;24847;48.218;16.414;2023-04-24T04:23:23;14.10;99.90
39103;DHT22;24847;48.218;16.414;2023-04-24T04:28:26;14.40;99.90
39103;DHT22;24847;48.218;16.414;2023-04-24T04:33:29;14.90;99.90
39103;DHT22;24847;48.218;16.414;2023-04-24T04:38:31;15.00;99.90
39103;DHT22;24847;48.218;16.414;2023-04-24T04:43:35;15.00;99.90
39103;DHT22;24847;48.218;16.414;2023-04-24T04:48:38;14.80;99.90
39103;DHT22;24847;48.218;16.414;2023-04-24T04:53:41;15.00;99.90
39103;DHT22;24847;48.218;16.414;2023-04-24T04:58:44;14.80;99.90
39103;DHT22;24847;48.218;16.414;2023-04-24T05:03:47;14.70;99.90
39103;DHT22;24847;48.218;16.414;2023-04-24T05:08:49;14.70;99.90
39103;DHT22;24847;48.218;16.414;2023-04-24T05:13:53;14.80;99.90
39103;DHT22;24847;48.218;16.414;2023-04-24T05:18:55;14.60;99.90
39103;DHT22;24847;48.218;16.414;2023-04-24T05:23:57;14.70;99.90
39103;DHT22;24847;48.218;16.414;2023-04-24T05:29:01;14.90;99.90
39103;DHT22;24847;48.218;16.414;2023-04-24T05:34:03;15.10;99.90
39103;DHT22;24847;48.218;16.414;2023-04-24T05:39:06;15.20;99.90
39103;DHT22;24847;48.218;16.414;2023-04-24T05:44:11;14.90;99.90
39103;DHT22;24847;48.218;16.414;2023-04-24T05:49:14;15.10;99.90
39103;DHT22;24847;48.218;16.414;2023-04-24T05:54:17;15.10;99.90
39103;DHT22;24847;48.218;16.414;2023-04-24T05:59:24;14.60;99.90
39103;DHT22;24847;48.218;16.414;2023-04-24T06:04:27;15.00;99.90
39103;DHT22;24847;48.218;16.414;2023-04-24T06:09:29;15.30;99.90
39103;DHT22;24847;48.218;16.414;2023-04-24T06:14:32;15.50;99.90
39103;DHT22;24847;48.218;16.414;2023-04-24T06:19:34;15.00;99.90
39103;DHT22;24847;48.218;16.414;2023-04-24T06:24:37;15.10;99.90
39103;DHT22;24847;48.218;16.414;2023-04-24T06:29:40;15.40;99.90
39103;DHT22;24847;48.218;16.414;2023-04-24T06:34:43;15.50;99.90
39103;DHT22;24847;48.218;16.414;2023-04-24T06:39:45;15.60;99.90
39103;DHT22;24847;48.218;16.414;2023-04-24T06:44:49;15.30;99.90
39103;DHT22;24847;48.218;16.414;2023-04-24T06:49:51;15.60;99.90
39103;DHT22;24847;48.218;16.414;2023-04-24T06:55:00;15.60;99.90
39103;DHT22;24847;48.218;16.414;2023-04-24T07:00:05;15.70;99.90
39103;DHT22;24847;48.218;16.414;2023-04-24T07:05:10;15.70;99.90
39103;DHT22;24847;48.218;16.414;2023-04-24T07:10:13;15.30;99.90
39103;DHT22;24847;48.218;16.414;2023-04-24T07:15:17;15.40;99.90
39103;DHT22;24847;48.218;16.414;2023-04-24T07:20:20;15.50;99.90
39103;DHT22;24847;48.218;16.414;2023-04-24T07:25:22;15.60;99.90
39103;DHT22;24847;48.218;16.414;2023-04-24T07:30:26;15.50;99.90
39103;DHT22;24847;48.218;16.414;2023-04-24T07:35:29;15.40;99.90
39103;DHT22;24847;48.218;16.414;2023-04-24T07:40:31;15.60;99.90
39103;DHT22;24847;48.218;16.414;2023-04-24T07:45:35;15.80;99.90
39103;DHT22;24847;48.218;16.414;2023-04-24T07:50:38;15.70;99.90
39103;DHT22;24847;48.218;16.414;2023-04-24T07:55:40;15.50;99.90
39103;DHT22;24847;48.218;16.414;2023-04-24T08:00:43;15.60;99.90
39103;DHT22;24847;48.218;16.414;2023-04-24T08:05:46;15.70;99.90
39103;DHT22;24847;48.218;16.414;2023-04-24T08:10:48;15.60;99.90
39103;DHT22;24847;48.218;16.414;2023-04-24T08:15:52;15.70;99.90
39103;DHT22;24847;48.218;16.414;2023-04-24T08:20:54;15.70;99.90
39103;DHT22;24847;48.218;16.414;2023-04-24T08:25:57;15.80;99.90
39103;DHT22;24847;48.218;16.414;2023-04-24T08:31:00;15.80;99.90
39103;DHT22;24847;48.218;16.414;2023-04-24T08:36:03;15.40;99.90
39103;DHT22;24847;48.218;16.414;2023-04-24T08:41:07;15.20;99.90
39103;DHT22;24847;48.218;16.414;2023-04-24T08:46:13;15.10;99.90
39103;DHT22;24847;48.218;16.414;2023-04-24T08:51:17;14.80;99.90
39103;DHT22;24847;48.218;16.414;2023-04-24T08:56:20;14.80;99.90
39103;DHT22;24847;48.218;16.414;2023-04-24T09:01:26;14.90;99.90
39103;DHT22;24847;48.218;16.414;2023-04-24T09:06:30;14.70;99.90
39103;DHT22;24847;48.218;16.414;2023-04-24T09:11:33;14.30;99.90
39103;DHT22;24847;48.218;16.414;2023-04-24T09:16:37;14.30;99.90
39103;DHT22;24847;48.218;16.414;2023-04-24T09:21:39;14.00;99.90
39103;DHT22;24847;48.218;16.414;2023-04-24T09:26:42;14.00;99.90
39103;DHT22;24847;48.218;16.414;2023-04-24T09:31:46;13.90;99.90
39103;DHT22;24847;48.218;16.414;2023-04-24T09:36:52;14.10;99.90
39103;DHT22;24847;48.218;16.414;2023-04-24T09:41:56;14.20;99.90
39103;DHT22;24847;48.218;16.414;2023-04-24T09:47:00;14.20;99.90
39103;DHT22;24847;48.218;16.414;2023-04-24T09:52:03;14.20;99.90
39103;DHT22;24847;48.218;16.414;2023-04-24T09:57:08;13.90;99.90
39103;DHT22;24847;48.218;16.414;2023-04-24T10:02:18;14.00;99.90
39103;DHT22;24847;48.218;16.414;2023-04-24T10:07:21;13.80;99.90
39103;DHT22;24847;48.218;16.414;2023-04-24T10:12:24;13.90;99.90
39103;DHT22;24847;48.218;16.414;2023-04-24T10:17:29;13.90;99.90
39103;DHT22;24847;48.218;16.414;2023-04-24T10:22:32;14.00;99.90
39103;DHT22;24847;48.218;16.414;2023-04-24T10:27:34;13.90;99.90
39103;DHT22;24847;48.218;16.414;2023-04-24T10:32:39;14.00;99.90
39103;DHT22;24847;48.218;16.414;2023-04-24T10:37:44;13.70;99.90
39103;DHT22;24847;48.218;16.414;2023-04-24T10:42:48;13.60;99.90
39103;DHT22;24847;48.218;16.414;2023-04-24T10:47:57;13.50;99.90
39103;DHT22;24847;48.218;16.414;2023-04-24T10:53:12;13.50;99.90
39103;DHT22;24847;48.218;16.414;2023-04-24T10:58:16;13.70;99.90
39103;DHT22;24847;48.218;16.414;2023-04-24T11:03:26;13.60;99.90
39103;DHT22;24847;48.218;16.414;2023-04-24T11:08:31;13.80;99.90
39103;DHT22;24847;48.218;16.414;2023-04-24T11:14:00;13.80;99.90
39103;DHT22;24847;48.218;16.414;2023-04-24T11:19:07;13.50;99.90
39103;DHT22;24847;48.218;16.414;2023-04-24T11:24:28;13.60;99.90
39103;DHT22;24847;48.218;16.414;2023-04-24T11:29:43;13.30;99.90
39103;DHT22;24847;48.218;16.414;2023-04-24T11:34:49;13.50;99.90
39103;DHT22;24847;48.218;16.414;2023-04-24T11:39:54;13.60;99.90
39103;DHT22;24847;48.218;16.414;2023-04-24T11:44:57;13.50;99.90
39103;DHT22;24847;48.218;16.414;2023-04-24T11:50:04;13.30;99.90
39103;DHT22;24847;48.218;16.414;2023-04-24T11:55:09;13.40;99.90
39103;DHT22;24847;48.218;16.414;2023-04-24T12:00:26;13.60;99.90
39103;DHT22;24847;48.218;16.414;2023-04-24T12:05:31;13.40;99.90
39103;DHT22;24847;48.218;16.414;2023-04-24T12:10:34;13.40;99.90
39103;DHT22;24847;48.218;16.414;2023-04-24T12:15:40;13.20;99.90
39103;DHT22;24847;48.218;16.414;2023-04-24T12:20:43;13.70;99.90
39103;DHT22;24847;48.218;16.414;2023-04-24T12:25:46;13.50;99.90
39103;DHT22;24847;48.218;16.414;2023-04-24T12:30:48;13.80;99.90
39103;DHT22;24847;48.218;16.414;2023-04-24T12:35:53;13.60;99.90
39103;DHT22;24847;48.218;16.414;2023-04-24T12:41:03;13.80;99.90
39103;DHT22;24847;48.218;16.414;2023-04-24T12:46:06;13.80;99.90
39103;DHT22;24847;48.218;16.414;2023-04-24T12:51:10;14.00;99.90
39103;DHT22;24847;48.218;16.414;2023-04-24T12:56:12;13.90;99.90
39103;DHT22;24847;48.218;16.414;2023-04-24T13:01:14;14.00;99.90
39103;DHT22;24847;48.218;16.414;2023-04-24T13:06:18;14.30;99.90
39103;DHT22;24847;48.218;16.414;2023-04-24T13:11:21;14.40;99.90
39103;DHT22;24847;48.218;16.414;2023-04-24T13:16:24;14.30;99.90
39103;DHT22;24847;48.218;16.414;2023-04-24T13:21:29;14.10;99.90
39103;DHT22;24847;48.218;16.414;2023-04-24T13:26:32;14.10;99.90
39103;DHT22;24847;48.218;16.414;2023-04-24T13:31:35;14.10;99.90
39103;DHT22;24847;48.218;16.414;2023-04-24T13:36:39;14.10;99.90
39103;DHT22;24847;48.218;16.414;2023-04-24T13:41:41;14.10;99.90
39103;DHT22;24847;48.218;16.414;2023-04-24T13:46:45;14.00;99.90
39103;DHT22;24847;48.218;16.414;2023-04-24T13:51:49;14.10;99.90
39103;DHT22;24847;48.218;16.414;2023-04-24T13:56:52;14.30;99.90
39103;DHT22;24847;48.218;16.414;2023-04-24T14:01:55;14.40;99.90
39103;DHT22;24847;48.218;16.414;2023-04-24T14:06:59;14.10;99.90
39103;DHT22;24847;48.218;16.414;2023-04-24T14:12:01;13.90;99.90
39103;DHT22;24847;48.218;16.414;2023-04-24T14:17:04;14.00;99.90
39103;DHT22;24847;48.218;16.414;2023-04-24T14:22:08;13.90;99.90
39103;DHT22;24847;48.218;16.414;2023-04-24T14:27:10;14.10;99.90
39103;DHT22;24847;48.218;16.414;2023-04-24T14:32:12;14.20;99.90
39103;DHT22;24847;48.218;16.414;2023-04-24T14:37:17;14.20;99.90
39103;DHT22;24847;48.218;16.414;2023-04-24T14:42:19;13.90;99.90
39103;DHT22;24847;48.218;16.414;2023-04-24T14:47:21;13.50;99.90
39103;DHT22;24847;48.218;16.414;2023-04-24T14:52:25;13.70;99.90
39103;DHT22;24847;48.218;16.414;2023-04-24T14:57:28;13.70;99.90
39103;DHT22;24847;48.218;16.414;2023-04-24T15:02:30;13.70;99.90
39103;DHT22;24847;48.218;16.414;2023-04-24T15:07:34;14.10;99.90
39103;DHT22;24847;48.218;16.414;2023-04-24T15:12:37;13.60;99.90
39103;DHT22;24847;48.218;16.414;2023-04-24T15:17:39;13.80;99.90
39103;DHT22;24847;48.218;16.414;2023-04-24T15:22:43;14.00;99.90
39103;DHT22;24847;48.218;16.414;2023-04-24T15:27:45;14.00;99.90
39103;DHT22;24847;48.218;16.414;2023-04-24T15:32:48;14.20;99.90
39103;DHT22;24847;48.218;16.414;2023-04-24T15:37:52;13.90;99.90
39103;DHT22;24847;48.218;16.414;2023-04-24T15:42:55;13.80;99.90
39103;DHT22;24847;48.218;16.414;2023-04-24T15:47:57;13.90;99.90
39103;DHT22;24847;48.218;16.414;2023-04-24T15:53:01;13.70;99.90
39103;DHT22;24847;48.218;16.414;2023-04-24T15:58:04;13.50;99.90
39103;DHT22;24847;48.218;16.414;2023-04-24T16:03:07;13.30;99.90
39103;DHT22;24847;48.218;16.414;2023-04-24T16:08:11;12.70;99.90
39103;DHT22;24847;48.218;16.414;2023-04-24T16:13:15;12.40;99.90
39103;DHT22;24847;48.218;16.414;2023-04-24T16:18:18;12.00;99.90
39103;DHT22;24847;48.218;16.414;2023-04-24T16:23:22;12.10;99.90
39103;DHT22;24847;48.218;16.414;2023-04-24T16:28:25;12.20;99.90
39103;DHT22;24847;48.218;16.414;2023-04-24T16:33:28;12.10;99.90
39103;DHT22;24847;48.218;16.414;2023-04-24T16:38:32;12.30;99.90
39103;DHT22;24847;48.218;16.414;2023-04-24T16:43:35;12.50;99.90
39103;DHT22;24847;48.218;16.414;2023-04-24T16:48:38;12.50;99.90
39103;DHT22;24847;48.218;16.414;2023-04-24T16:53:41;12.40;99.90
39103;DHT22;24847;48.218;16.414;2023-04-24T16:58:44;12.40;99.90
39103;DHT22;24847;48.218;16.414;2023-04-24T17:03:46;12.70;99.90
39103;DHT22;24847;48.218;16.414;2023-04-24T17:08:50;12.60;99.90
39103;DHT22;24847;48.218;16.414;2023-04-24T17:13:53;12.60;99.90
39103;DHT22;24847;48.218;16.414;2023-04-24T17:18:56;12.40;99.90
39103;DHT22;24847;48.218;16.414;2023-04-24T17:23:59;12.40;99.90
39103;DHT22;24847;48.218;16.414;2023-04-24T17:29:02;12.50;99.90
39103;DHT22;24847;48.218;16.414;2023-04-24T17:34:05;12.20;99.90
39103;DHT22;24847;48.218;16.414;2023-04-24T17:39:11;12.00;99.90
39103;DHT22;24847;48.218;16.414;2023-04-24T17:44:14;12.00;99.90
39103;DHT22;24847;48.218;16.414;2023-04-24T17:49:17;12.00;99.90
39103;DHT22;24847;48.218;16.414;2023-04-24T17:54:21;12.20;99.90
39103;DHT22;24847;48.218;16.414;2023-04-24T17:59:24;11.90;99.90
39103;DHT22;24847;48.218;16.414;2023-04-24T18:04:27;11.90;99.90
39103;DHT22;24847;48.218;16.414;2023-04-24T18:09:31;11.90;99.90
39103;DHT22;24847;48.218;16.414;2023-04-24T18:14:34;12.00;99.90
39103;DHT22;24847;48.218;16.414;2023-04-24T18:19:37;12.00;99.90
39103;DHT22;24847;48.218;16.414;2023-04-24T18:24:40;12.10;99.90
39103;DHT22;24847;48.218;16.414;2023-04-24T18:29:43;12.20;99.90
39103;DHT22;24847;48.218;16.414;2023-04-24T18:34:46;12.00;99.90
39103;DHT22;24847;48.218;16.414;2023-04-24T18:39:51;12.10;99.90
39103;DHT22;24847;48.218;16.414;2023-04-24T18:44:56;12.10;99.90
39103;DHT22;24847;48.218;16.414;2023-04-24T18:50:01;11.70;99.90
39103;DHT22;24847;48.218;16.414;2023-04-24T18:55:07;11.60;99.90
39103;DHT22;24847;48.218;16.414;2023-04-24T19:00:11;11.80;99.90
39103;DHT22;24847;48.218;16.414;2023-04-24T19:05:15;11.80;99.90
39103;DHT22;24847;48.218;16.414;2023-04-24T19:10:19;11.70;99.90
39103;DHT22;24847;48.218;16.414;2023-04-24T19:15:23;11.70;99.90
39103;DHT22;24847;48.218;16.414;2023-04-24T19:20:25;11.90;99.90
39103;DHT22;24847;48.218;16.414;2023-04-24T19:25:29;12.00;99.90
39103;DHT22;24847;48.218;16.414;2023-04-24T19:30:31;11.90;99.90
39103;DHT22;24847;48.218;16.414;2023-04-24T19:35:35;11.90;99.90
39103;DHT22;24847;48.218;16.414;2023-04-24T19:40:40;11.60;99.90
39103;DHT22;24847;48.218;16.414;2023-04-24T19:45:42;12.00;99.90
39103;DHT22;24847;48.218;16.414;2023-04-24T19:50:46;11.90;99.90
39103;DHT22;24847;48.218;16.414;2023-04-24T19:55:50;11.90;99.90
39103;DHT22;24847;48.218;16.414;2023-04-24T20:00:53;11.80;99.90
39103;DHT22;24847;48.218;16.414;2023-04-24T20:05:55;11.60;99.90
39103;DHT22;24847;48.218;16.414;2023-04-24T20:10:59;11.70;99.90
39103;DHT22;24847;48.218;16.414;2023-04-24T20:16:02;11.80;99.90
39103;DHT22;24847;48.218;16.414;2023-04-24T20:21:04;11.70;99.90
39103;DHT22;24847;48.218;16.414;2023-04-24T20:26:08;11.60;99.90
39103;DHT22;24847;48.218;16.414;2023-04-24T20:31:11;11.60;99.90
39103;DHT22;24847;48.218;16.414;2023-04-24T20:36:13;11.70;99.90
39103;DHT22;24847;48.218;16.414;2023-04-24T20:41:17;11.80;99.90
39103;DHT22;24847;48.218;16.414;2023-04-24T20:46:20;11.80;99.90
39103;DHT22;24847;48.218;16.414;2023-04-24T20:51:23;11.80;99.90
39103;DHT22;24847;48.218;16.414;2023-04-24T20:56:27;11.70;99.90
39103;DHT22;24847;48.218;16.414;2023-04-24T21:01:29;11.70;99.90
39103;DHT22;24847;48.218;16.414;2023-04-24T21:06:31;11.80;99.90
39103;DHT22;24847;48.218;16.414;2023-04-24T21:11:35;11.70;99.90
39103;DHT22;24847;48.218;16.414;2023-04-24T21:16:37;11.70;99.90
39103;DHT22;24847;48.218;16.414;2023-04-24T21:21:39;11.70;99.90
39103;DHT22;24847;48.218;16.414;2023-04-24T21:26:43;11.50;99.90
39103;DHT22;24847;48.218;16.414;2023-04-24T21:31:46;11.40;99.90
39103;DHT22;24847;48.218;16.414;2023-04-24T21:36:48;11.70;99.90
39103;DHT22;24847;48.218;16.414;2023-04-24T21:41:52;11.70;99.90
39103;DHT22;24847;48.218;16.414;2023-04-24T21:46:54;11.70;99.90
39103;DHT22;24847;48.218;16.414;2023-04-24T21:51:57;11.70;99.90
39103;DHT22;24847;48.218;16.414;2023-04-24T21:57:00;11.50;99.90
39103;DHT22;24847;48.218;16.414;2023-04-24T22:02:03;11.60;99.90
39103;DHT22;24847;48.218;16.414;2023-04-24T22:07:05;11.70;99.90
39103;DHT22;24847;48.218;16.414;2023-04-24T22:12:09;11.50;99.90
39103;DHT22;24847;48.218;16.414;2023-04-24T22:17:11;11.60;99.90
39103;DHT22;24847;48.218;16.414;2023-04-24T22:22:14;11.60;99.90
39103;DHT22;24847;48.218;16.414;2023-04-24T22:27:18;11.60;99.90
39103;DHT22;24847;48.218;16.414;2023-04-24T22:32:21;11.40;99.90
39103;DHT22;24847;48.218;16.414;2023-04-24T22:37:23;11.40;99.90
39103;DHT22;24847;48.218;16.414;2023-04-24T22:42:28;11.30;99.90
39103;DHT22;24847;48.218;16.414;2023-04-24T22:47:30;11.40;99.90
39103;DHT22;24847;48.218;16.414;2023-04-24T22:52:33;11.30;99.90
39103;DHT22;24847;48.218;16.414;2023-04-24T22:57:38;11.30;99.90
39103;DHT22;24847;48.218;16.414;2023-04-24T23:02:41;11.20;99.90
39103;DHT22;24847;48.218;16.414;2023-04-24T23:07:43;11.20;99.90
39103;DHT22;24847;48.218;16.414;2023-04-24T23:12:47;11.10;99.90
39103;DHT22;24847;48.218;16.414;2023-04-24T23:17:50;11.30;99.90
39103;DHT22;24847;48.218;16.414;2023-04-24T23:22:52;11.30;99.90
39103;DHT22;24847;48.218;16.414;2023-04-24T23:27:56;11.30;99.90
39103;DHT22;24847;48.218;16.414;2023-04-24T23:32:59;11.10;99.90
39103;DHT22;24847;48.218;16.414;2023-04-24T23:38:01;11.20;99.90
39103;DHT22;24847;48.218;16.414;2023-04-24T23:43:05;11.20;99.90
39103;DHT22;24847;48.218;16.414;2023-04-24T23:48:07;11.00;99.90
39103;DHT22;24847;48.218;16.414;2023-04-24T23:53:10;11.10;99.90
39103;DHT22;24847;48.218;16.414;2023-04-24T23:58:13;10.90;99.90
